Terminal Aerodrome Forecast
Issued by NWS Portland, OR

Home | Current Version | Previous Version | Text Only | Print | Product List | Glossary On
Versions: 1 2 3 4 5 6 7 8 9 10 11 12 13 14 15 16
000
FTUS46 KPQR 131139
TAFEUG
TAF
KEUG 131139Z 1312/1412 VRB03KT 5SM BR SKC
     FM131400 00000KT 1/2SM FZFG VV002
     FM131900 VRB03KT 2SM BR BKN004
     FM132100 36006KT P6SM SKC=

USA.gov is the U.S. government's official web portal to all federal, state and local government web resources and services.